createdAt,value
2024-03-03T00:00:42.918Z,100358.00
2024-03-03T00:01:44.633Z,100358.00
2024-03-03T00:02:46.328Z,100353.63
2024-03-03T00:03:48.201Z,100361.44
2024-03-03T00:04:52.966Z,100357.13
2024-03-03T00:05:54.662Z,100359.72
2024-03-03T00:06:56.314Z,100364.94
2024-03-03T00:08:00.313Z,100364.03
2024-03-03T00:09:01.978Z,100364.03
2024-03-03T00:10:04.548Z,100359.72
2024-03-03T00:11:06.403Z,100356.25
2024-03-03T00:12:08.648Z,100357.97
2024-03-03T00:13:10.477Z,100357.97
2024-03-03T00:14:13.082Z,100360.56
2024-03-03T00:15:14.812Z,100364.03
2024-03-03T00:16:17.248Z,100352.75
2024-03-03T00:17:21.375Z,100353.59
2024-03-03T00:18:22.971Z,100351.00
2024-03-03T00:19:25.154Z,100354.47
2024-03-03T00:20:27.453Z,100355.31
2024-03-03T00:21:29.252Z,100353.59
2024-03-03T00:22:35.185Z,100354.47
2024-03-03T00:23:39.995Z,100356.19
2024-03-03T00:24:41.971Z,100357.91
2024-03-03T00:25:43.806Z,100361.41
2024-03-03T00:26:45.591Z,100357.91
2024-03-03T00:27:47.936Z,100351.00
2024-03-03T00:28:49.615Z,100351.88
2024-03-03T00:29:51.693Z,100351.00
2024-03-03T00:30:53.758Z,100353.63
2024-03-03T00:31:55.826Z,100357.94
2024-03-03T00:32:57.857Z,100356.19
2024-03-03T00:33:59.745Z,100354.47
2024-03-03T00:35:01.619Z,100362.28
2024-03-03T00:36:06.837Z,100353.59
2024-03-03T00:37:08.642Z,100360.50
2024-03-03T00:38:11.346Z,100363.09
2024-03-03T00:39:13.996Z,100361.41
2024-03-03T00:40:16.674Z,100363.13
2024-03-03T00:41:18.625Z,100362.28
2024-03-03T00:42:20.415Z,100358.78
2024-03-03T00:43:22.256Z,100361.41
2024-03-03T00:44:24.484Z,100362.25
2024-03-03T00:45:26.125Z,100360.47
2024-03-03T00:46:30.031Z,100362.22
2024-03-03T00:47:31.777Z,100354.47
2024-03-03T00:48:33.666Z,100355.28
2024-03-03T00:49:35.618Z,100356.19
2024-03-03T00:50:37.570Z,100360.50
2024-03-03T00:51:40.320Z,100359.66
2024-03-03T00:52:42.385Z,100363.09
2024-03-03T00:53:44.330Z,100357.03
2024-03-03T00:54:46.579Z,100357.03
2024-03-03T00:55:52.985Z,100357.03
2024-03-03T00:56:54.654Z,100363.06
2024-03-03T00:57:56.497Z,100364.84
2024-03-03T00:58:58.342Z,100361.38
2024-03-03T01:00:00.511Z,100353.59
2024-03-03T01:01:02.907Z,100345.78
2024-03-03T01:02:04.686Z,100350.09
2024-03-03T01:03:06.659Z,100352.69
2024-03-03T01:04:08.704Z,100350.09
2024-03-03T01:05:11.141Z,100346.63
2024-03-03T01:06:15.556Z,100357.91
2024-03-03T01:07:18.107Z,100350.09
2024-03-03T01:08:19.804Z,100347.47
2024-03-03T01:09:21.556Z,100345.75
2024-03-03T01:10:23.366Z,100350.97
2024-03-03T01:11:25.261Z,100351.81
2024-03-03T01:12:27.127Z,100348.38
2024-03-03T01:13:29.422Z,100342.28
2024-03-03T01:14:31.880Z,100341.44
2024-03-03T01:15:33.771Z,100346.66
2024-03-03T01:16:35.995Z,100343.19
2024-03-03T01:17:37.677Z,100342.31
2024-03-03T01:18:39.461Z,100339.75
2024-03-03T01:19:41.193Z,100342.34
2024-03-03T01:20:43.208Z,100351.91
2024-03-03T01:21:45.597Z,100342.34
2024-03-03T01:22:47.510Z,100333.69
2024-03-03T01:23:49.333Z,100330.22
2024-03-03T01:24:50.971Z,100336.31
2024-03-03T01:25:52.761Z,100338.00
2024-03-03T01:26:54.992Z,100341.50
2024-03-03T01:27:56.737Z,100340.63
2024-03-03T01:28:58.823Z,100339.75
2024-03-03T01:30:01.178Z,100334.56
2024-03-03T01:31:02.856Z,100333.69
2024-03-03T01:32:04.969Z,100333.69
2024-03-03T01:33:06.974Z,100335.41
2024-03-03T01:34:08.701Z,100337.16
2024-03-03T01:35:10.569Z,100338.91
2024-03-03T01:36:12.474Z,100342.41
2024-03-03T01:37:14.467Z,100334.56
2024-03-03T01:38:16.217Z,100338.03
2024-03-03T01:39:17.923Z,100332.84
2024-03-03T01:40:19.712Z,100331.09
2024-03-03T01:41:21.392Z,100337.19
2024-03-03T01:42:23.143Z,100340.66
2024-03-03T01:43:24.823Z,100334.59
2024-03-03T01:44:26.476Z,100337.19
2024-03-03T01:45:28.199Z,100334.59
2024-03-03T01:46:30.221Z,100337.19
2024-03-03T01:47:32.994Z,100334.59
2024-03-03T01:48:35.741Z,100336.34
2024-03-03T01:49:39.947Z,100332.84
2024-03-03T01:50:43.061Z,100338.09
2024-03-03T01:51:46.188Z,100335.50
2024-03-03T01:52:50.723Z,100329.44
2024-03-03T01:53:54.457Z,100332.03
2024-03-03T01:54:56.812Z,100324.22
2024-03-03T01:55:59.844Z,100325.13
2024-03-03T01:57:03.999Z,100333.78
2024-03-03T01:58:07.578Z,100326.84
2024-03-03T01:59:10.914Z,100318.19
2024-03-03T02:00:14.787Z,100328.59
2024-03-03T02:01:17.018Z,100312.16
2024-03-03T02:02:19.367Z,100315.63
2024-03-03T02:03:20.969Z,100314.72
2024-03-03T02:04:23.124Z,100319.94
2024-03-03T02:05:24.836Z,100317.34
2024-03-03T02:06:31.506Z,100312.13
2024-03-03T02:07:33.828Z,100311.25
2024-03-03T02:08:36.939Z,100314.72
2024-03-03T02:09:39.870Z,100317.34
2024-03-03T02:10:42.434Z,100309.53
2024-03-03T02:11:44.430Z,100304.31
2024-03-03T02:12:50.382Z,100306.91
2024-03-03T02:13:54.110Z,100307.81
2024-03-03T02:14:56.426Z,100312.13
2024-03-03T02:15:59.129Z,100312.13
2024-03-03T02:17:01.076Z,100311.25
2024-03-03T02:18:05.220Z,100312.13
2024-03-03T02:19:06.916Z,100313.00
2024-03-03T02:20:10.410Z,100309.50
2024-03-03T02:21:12.150Z,100309.53
2024-03-03T02:22:15.019Z,100310.38
2024-03-03T02:23:16.664Z,100317.31
2024-03-03T02:24:18.589Z,100315.56
2024-03-03T02:25:21.746Z,100310.34
2024-03-03T02:26:26.543Z,100315.53
2024-03-03T02:27:28.562Z,100317.28
2024-03-03T02:28:31.219Z,100318.13
2024-03-03T02:29:32.982Z,100316.41
2024-03-03T02:30:34.914Z,100313.81
2024-03-03T02:31:36.926Z,100312.94
2024-03-03T02:32:38.980Z,100312.06
2024-03-03T02:33:41.179Z,100321.63
2024-03-03T02:34:43.100Z,100317.28
2024-03-03T02:35:44.787Z,100315.56
2024-03-03T02:36:46.862Z,100316.44
2024-03-03T02:37:48.944Z,100307.78
2024-03-03T02:38:51.361Z,100309.50
2024-03-03T02:39:53.265Z,100315.63
2024-03-03T02:40:55.492Z,100314.72
2024-03-03T02:41:57.752Z,100308.69
2024-03-03T02:43:01.705Z,100314.75
2024-03-03T02:44:05.734Z,100311.31
2024-03-03T02:45:07.954Z,100313.94
2024-03-03T02:46:10.028Z,100311.34
2024-03-03T02:47:11.644Z,100305.25
2024-03-03T02:48:13.351Z,100312.22
2024-03-03T02:49:18.676Z,100307.88
2024-03-03T02:50:21.339Z,100314.84
2024-03-03T02:51:23.044Z,100306.16
2024-03-03T02:52:24.772Z,100307.91
2024-03-03T02:53:26.470Z,100310.53
2024-03-03T02:54:29.520Z,100307.97
2024-03-03T02:55:31.153Z,100312.28
2024-03-03T02:56:33.062Z,100303.66
2024-03-03T02:57:34.770Z,100308.88
2024-03-03T02:58:36.440Z,100303.69
2024-03-03T02:59:38.450Z,100311.50
2024-03-03T03:00:40.325Z,100314.97
2024-03-03T03:01:42.147Z,100312.38
2024-03-03T03:02:44.155Z,100312.41
2024-03-03T03:03:46.086Z,100304.63
2024-03-03T03:04:47.988Z,100308.94
2024-03-03T03:05:49.841Z,100306.38
2024-03-03T03:06:51.559Z,100307.25
2024-03-03T03:07:53.588Z,100301.19
2024-03-03T03:08:58.211Z,100304.63
2024-03-03T03:10:00.351Z,100306.38
2024-03-03T03:11:03.714Z,100302.03
2024-03-03T03:12:06.041Z,100305.50
2024-03-03T03:13:09.278Z,100297.72
2024-03-03T03:14:11.552Z,100308.97
2024-03-03T03:15:14.304Z,100297.72
2024-03-03T03:16:16.356Z,100294.22
2024-03-03T03:17:18.009Z,100296.84
2024-03-03T03:18:19.627Z,100297.72
2024-03-03T03:19:21.557Z,100295.97
2024-03-03T03:20:23.306Z,100295.97
2024-03-03T03:21:28.499Z,100296.81
2024-03-03T03:22:30.592Z,100295.94
2024-03-03T03:23:32.794Z,100288.13
2024-03-03T03:24:34.736Z,100295.06
2024-03-03T03:25:36.333Z,100294.22
2024-03-03T03:26:38.135Z,100290.69
2024-03-03T03:27:41.465Z,100290.69
2024-03-03T03:28:43.153Z,100290.69
2024-03-03T03:29:47.006Z,100291.56
2024-03-03T03:30:49.156Z,100293.28
2024-03-03T03:31:50.986Z,100301.94
2024-03-03T03:32:52.881Z,100299.31
2024-03-03T03:33:54.573Z,100293.25
2024-03-03T03:34:56.220Z,100297.59
2024-03-03T03:35:57.979Z,100290.63
2024-03-03T03:36:59.657Z,100293.22
2024-03-03T03:38:01.275Z,100295.81
2024-03-03T03:39:03.018Z,100295.81
2024-03-03T03:40:11.539Z,100292.34
2024-03-03T03:41:13.392Z,100293.22
2024-03-03T03:42:15.440Z,100301.88
2024-03-03T03:43:17.091Z,100298.41
2024-03-03T03:44:20.687Z,100300.16
2024-03-03T03:45:22.301Z,100300.19
2024-03-03T03:46:24.467Z,100305.34
2024-03-03T03:47:26.181Z,100290.59
2024-03-03T03:48:28.159Z,100297.53
2024-03-03T03:49:30.514Z,100302.75
2024-03-03T03:50:32.167Z,100294.06
2024-03-03T03:51:34.009Z,100300.97
2024-03-03T03:52:35.768Z,100297.50
2024-03-03T03:53:37.664Z,100299.25
2024-03-03T03:54:39.597Z,100296.66
2024-03-03T03:55:41.309Z,100291.44
2024-03-03T03:56:43.249Z,100299.25
2024-03-03T03:57:44.896Z,100299.25
2024-03-03T03:58:46.510Z,100295.75
2024-03-03T03:59:48.507Z,100287.09
2024-03-03T04:00:50.383Z,100289.69
2024-03-03T04:01:53.596Z,100290.53
2024-03-03T04:02:55.828Z,100289.69
2024-03-03T04:03:58.819Z,100290.53
2024-03-03T04:05:00.593Z,100292.28
2024-03-03T04:06:02.325Z,100294.88
2024-03-03T04:07:05.660Z,100300.06
2024-03-03T04:08:07.654Z,100294.91
2024-03-03T04:09:09.430Z,100296.63
2024-03-03T04:10:11.221Z,100299.22
2024-03-03T04:11:15.088Z,100295.75
2024-03-03T04:12:16.763Z,100293.13
2024-03-03T04:13:18.922Z,100297.50
2024-03-03T04:14:20.706Z,100294.91
2024-03-03T04:15:22.753Z,100297.50
2024-03-03T04:16:24.528Z,100302.69
2024-03-03T04:17:26.292Z,100294.88
2024-03-03T04:18:31.845Z,100296.59
2024-03-03T04:19:33.839Z,100297.47
2024-03-03T04:20:36.999Z,100300.97
2024-03-03T04:21:45.596Z,100301.81
2024-03-03T04:22:47.320Z,100305.28
2024-03-03T04:23:49.307Z,100303.53
2024-03-03T04:24:51.015Z,100300.97
2024-03-03T04:25:52.823Z,100302.69
2024-03-03T04:26:54.570Z,100298.34
2024-03-03T04:27:56.346Z,100299.22
2024-03-03T04:28:58.013Z,100301.81
2024-03-03T04:29:59.648Z,100300.06
2024-03-03T04:31:08.173Z,100303.53
2024-03-03T04:32:10.454Z,100303.56
2024-03-03T04:33:13.931Z,100300.06
2024-03-03T04:34:15.762Z,100304.44
2024-03-03T04:35:17.720Z,100296.63
2024-03-03T04:36:19.406Z,100309.63
2024-03-03T04:37:20.996Z,100298.34
2024-03-03T04:38:22.687Z,100305.31
2024-03-03T04:39:24.353Z,100302.69
2024-03-03T04:40:26.043Z,100301.84
2024-03-03T04:41:31.881Z,100302.69
2024-03-03T04:42:33.845Z,100293.16
2024-03-03T04:43:35.548Z,100298.38
2024-03-03T04:44:37.501Z,100302.75
2024-03-03T04:45:39.338Z,100307.94
2024-03-03T04:46:41.040Z,100306.22
2024-03-03T04:47:43.243Z,100310.56
2024-03-03T04:48:45.411Z,100309.69
2024-03-03T04:49:47.431Z,100308.81
2024-03-03T04:50:49.292Z,100307.97
2024-03-03T04:51:51.065Z,100303.66
2024-03-03T04:52:52.818Z,100304.50
2024-03-03T04:53:55.937Z,100310.59
2024-03-03T04:54:57.601Z,100308.88
2024-03-03T04:55:59.384Z,100309.72
2024-03-03T04:57:01.935Z,100306.31
2024-03-03T04:58:04.286Z,100309.78
2024-03-03T04:59:06.501Z,100305.47
2024-03-03T05:00:14.508Z,100307.22
2024-03-03T05:01:16.281Z,100308.94
2024-03-03T05:02:19.652Z,100312.44
2024-03-03T05:03:21.444Z,100310.72
2024-03-03T05:04:23.084Z,100317.66
2024-03-03T05:05:24.789Z,100312.47
2024-03-03T05:06:26.416Z,100313.34
2024-03-03T05:07:28.883Z,100314.22
2024-03-03T05:08:30.819Z,100315.97
2024-03-03T05:09:32.614Z,100310.75
2024-03-03T05:10:34.386Z,100318.59
2024-03-03T05:11:36.902Z,100312.53
2024-03-03T05:12:38.657Z,100314.28
2024-03-03T05:13:40.633Z,100309.13
2024-03-03T05:14:42.212Z,100308.25
2024-03-03T05:15:43.962Z,100311.78
2024-03-03T05:16:45.877Z,100310.06
2024-03-03T05:17:47.788Z,100305.75
2024-03-03T05:18:49.915Z,100306.63
2024-03-03T05:19:51.818Z,100311.00
2024-03-03T05:20:53.509Z,100309.28
2024-03-03T05:21:55.670Z,100311.91
2024-03-03T05:22:58.451Z,100300.63
2024-03-03T05:24:00.331Z,100304.97
2024-03-03T05:25:02.038Z,100302.41
2024-03-03T05:26:04.317Z,100302.44
2024-03-03T05:27:06.069Z,100300.69
2024-03-03T05:28:07.740Z,100300.72
2024-03-03T05:29:09.494Z,100305.94
2024-03-03T05:30:11.504Z,100300.75
2024-03-03T05:31:13.263Z,100305.94
2024-03-03T05:32:15.016Z,100302.50
2024-03-03T05:33:16.621Z,100301.66
2024-03-03T05:34:18.960Z,100299.91
2024-03-03T05:35:20.749Z,100302.53
2024-03-03T05:36:22.541Z,100309.50
2024-03-03T05:37:24.854Z,100301.69
2024-03-03T05:38:26.485Z,100302.56
2024-03-03T05:39:28.586Z,100302.59
2024-03-03T05:40:30.547Z,100300.84
2024-03-03T05:41:32.150Z,100300.88
2024-03-03T05:42:33.944Z,100300.88
2024-03-03T05:43:37.734Z,100304.34
2024-03-03T05:44:39.572Z,100308.69
2024-03-03T05:45:41.754Z,100302.63
2024-03-03T05:46:43.962Z,100299.19
2024-03-03T05:47:45.706Z,100305.25
2024-03-03T05:48:47.798Z,100298.34
2024-03-03T05:49:49.466Z,100303.53
2024-03-03T05:50:51.558Z,100301.81
2024-03-03T05:51:54.000Z,100297.50
2024-03-03T05:52:55.738Z,100305.31
2024-03-03T05:53:57.454Z,100302.72
2024-03-03T05:54:59.351Z,100301.00
2024-03-03T05:56:01.020Z,100298.44
2024-03-03T05:57:03.010Z,100302.78
2024-03-03T05:58:04.948Z,100297.59
2024-03-03T05:59:06.642Z,100299.31
2024-03-03T06:00:09.893Z,100301.03
2024-03-03T06:01:12.565Z,100298.44
2024-03-03T06:02:14.348Z,100295.00
2024-03-03T06:03:16.086Z,100296.72
2024-03-03T06:04:18.976Z,100292.38
2024-03-03T06:05:20.735Z,100299.28
2024-03-03T06:06:22.388Z,100294.09
2024-03-03T06:07:24.151Z,100296.66
2024-03-03T06:08:26.541Z,100291.44
2024-03-03T06:09:28.235Z,100291.44
2024-03-03T06:10:29.889Z,100293.16
2024-03-03T06:11:31.540Z,100300.94
2024-03-03T06:12:33.437Z,100291.44
2024-03-03T06:13:35.924Z,100295.72
2024-03-03T06:14:37.612Z,100300.03
2024-03-03T06:15:39.674Z,100291.38
2024-03-03T06:16:42.249Z,100292.22
2024-03-03T06:17:44.125Z,100293.09
2024-03-03T06:18:45.892Z,100292.22
2024-03-03T06:19:47.841Z,100292.22
2024-03-03T06:20:49.571Z,100294.81
2024-03-03T06:21:51.839Z,100296.53
2024-03-03T06:22:53.938Z,100296.53
2024-03-03T06:23:55.752Z,100296.53
2024-03-03T06:24:57.723Z,100296.50
2024-03-03T06:25:59.469Z,100296.53
2024-03-03T06:27:01.146Z,100296.53
2024-03-03T06:28:02.950Z,100295.66
2024-03-03T06:29:07.208Z,100300.81
2024-03-03T06:30:12.230Z,100301.72
2024-03-03T06:31:14.239Z,100291.31
2024-03-03T06:32:16.354Z,100299.97
2024-03-03T06:33:19.577Z,100302.56
2024-03-03T06:34:21.436Z,100301.72
2024-03-03T06:35:23.216Z,100304.28
2024-03-03T06:36:24.844Z,100304.28
2024-03-03T06:37:27.630Z,100308.59
2024-03-03T06:38:29.535Z,100308.59
2024-03-03T06:39:31.866Z,100306.91
2024-03-03T06:40:34.044Z,100310.38
2024-03-03T06:41:35.741Z,100311.22
2024-03-03T06:42:43.915Z,100309.53
2024-03-03T06:43:46.467Z,100317.31
2024-03-03T06:44:50.923Z,100319.91
2024-03-03T06:45:52.823Z,100318.16
2024-03-03T06:46:54.484Z,100317.31
2024-03-03T06:47:56.126Z,100321.63
2024-03-03T06:48:57.848Z,100321.63
2024-03-03T06:50:00.786Z,100322.50
2024-03-03T06:51:02.708Z,100326.84
2024-03-03T06:52:05.021Z,100325.97
2024-03-03T06:53:07.119Z,100320.78
2024-03-03T06:54:08.925Z,100325.94
2024-03-03T06:55:10.917Z,100320.72
2024-03-03T06:56:15.331Z,100318.97
2024-03-03T06:57:17.005Z,100325.00
2024-03-03T06:58:19.047Z,100325.00
2024-03-03T06:59:20.734Z,100328.41
2024-03-03T07:00:22.637Z,100333.59
2024-03-03T07:01:25.080Z,100327.50
2024-03-03T07:02:47.118Z,100329.19
2024-03-03T07:04:10.590Z,100327.47
2024-03-03T07:05:12.595Z,100329.19
2024-03-03T07:06:14.550Z,100322.22
2024-03-03T07:07:16.296Z,100324.78
2024-03-03T07:08:20.315Z,100326.50
2024-03-03T07:09:25.087Z,100331.66
2024-03-03T07:10:26.893Z,100324.69
2024-03-03T07:11:29.680Z,100327.28
2024-03-03T07:12:31.430Z,100331.59
2024-03-03T07:13:33.487Z,100329.81
2024-03-03T07:14:36.402Z,100330.69
2024-03-03T07:15:38.170Z,100330.66
2024-03-03T07:16:39.832Z,100330.63
2024-03-03T07:17:42.719Z,100331.47
2024-03-03T07:18:44.546Z,100333.19
2024-03-03T07:19:46.409Z,100333.19
2024-03-03T07:20:48.832Z,100337.50
2024-03-03T07:21:50.814Z,100334.00
2024-03-03T07:22:52.738Z,100338.31
2024-03-03T07:23:54.797Z,100333.09
2024-03-03T07:24:56.466Z,100332.19
2024-03-03T07:26:00.521Z,100332.16
2024-03-03T07:27:02.210Z,100331.28
2024-03-03T07:28:04.623Z,100341.63
2024-03-03T07:29:09.205Z,100335.53
2024-03-03T07:30:12.803Z,100336.38
2024-03-03T07:31:14.548Z,100342.44
2024-03-03T07:32:16.173Z,100346.72
2024-03-03T07:33:17.908Z,100335.44
2024-03-03T07:34:19.663Z,100335.41
2024-03-03T07:35:21.285Z,100338.88
2024-03-03T07:36:22.977Z,100340.59
2024-03-03T07:37:25.272Z,100342.25
2024-03-03T07:38:27.317Z,100350.06
2024-03-03T07:39:29.272Z,100350.91
2024-03-03T07:40:36.939Z,100350.88
2024-03-03T07:41:39.009Z,100345.66
2024-03-03T07:42:40.737Z,100352.56
2024-03-03T07:43:42.873Z,100356.03
2024-03-03T07:44:44.541Z,100348.22
2024-03-03T07:45:46.230Z,100350.78
2024-03-03T07:46:47.947Z,100352.50
2024-03-03T07:47:49.810Z,100352.47
2024-03-03T07:48:51.518Z,100355.06
2024-03-03T07:49:55.668Z,100355.91
2024-03-03T07:50:57.705Z,100357.59
2024-03-03T07:51:59.989Z,100360.19
2024-03-03T07:53:01.907Z,100359.31
2024-03-03T07:54:03.809Z,100361.91
2024-03-03T07:55:05.880Z,100365.34
2024-03-03T07:56:07.769Z,100367.03
2024-03-03T07:57:09.436Z,100361.84
2024-03-03T07:58:11.128Z,100363.50
2024-03-03T07:59:13.858Z,100366.13
2024-03-03T08:00:16.284Z,100362.63
2024-03-03T08:01:18.067Z,100368.69
2024-03-03T08:02:19.960Z,100359.97
2024-03-03T08:03:21.750Z,100363.44
2024-03-03T08:04:23.839Z,100371.19
2024-03-03T08:05:25.521Z,100366.84
2024-03-03T08:06:28.316Z,100368.56
2024-03-03T08:07:30.203Z,100366.81
2024-03-03T08:08:31.802Z,100371.16
2024-03-03T08:09:33.902Z,100365.94
2024-03-03T08:10:35.859Z,100370.25
2024-03-03T08:11:37.976Z,100365.03
2024-03-03T08:12:39.941Z,100367.66
2024-03-03T08:13:41.888Z,100370.22
2024-03-03T08:14:44.044Z,100367.59
2024-03-03T08:15:46.208Z,100361.53
2024-03-03T08:16:50.067Z,100366.69
2024-03-03T08:17:51.696Z,100364.06
2024-03-03T08:18:54.591Z,100362.28
2024-03-03T08:19:56.222Z,100361.41
2024-03-03T08:20:57.925Z,100357.03
2024-03-03T08:21:59.654Z,100356.09
2024-03-03T08:23:01.292Z,100357.81
2024-03-03T08:24:02.963Z,100356.03
2024-03-03T08:25:06.579Z,100359.50
2024-03-03T08:26:12.529Z,100354.22
2024-03-03T08:27:14.362Z,100361.16
2024-03-03T08:28:16.078Z,100355.03
2024-03-03T08:29:18.842Z,100360.22
2024-03-03T08:30:21.139Z,100353.25
2024-03-03T08:31:22.912Z,100359.31
2024-03-03T08:32:27.556Z,100364.47
2024-03-03T08:33:29.435Z,100367.91
2024-03-03T08:34:31.702Z,100360.06
2024-03-03T08:35:33.692Z,100367.84
2024-03-03T08:36:35.513Z,100367.81
2024-03-03T08:37:37.469Z,100365.19
2024-03-03T08:38:39.837Z,100360.78
2024-03-03T08:39:42.073Z,100365.13
2024-03-03T08:40:45.701Z,100370.28
2024-03-03T08:41:47.350Z,100357.22
2024-03-03T08:42:49.479Z,100358.94
2024-03-03T08:43:51.192Z,100357.16
2024-03-03T08:44:54.904Z,100364.06
2024-03-03T08:45:56.573Z,100357.09
2024-03-03T08:46:58.870Z,100353.56
2024-03-03T08:48:01.406Z,100353.53
2024-03-03T08:49:05.415Z,100352.63
2024-03-03T08:50:08.033Z,100353.44
2024-03-03T08:51:11.079Z,100350.81
2024-03-03T08:52:12.899Z,100348.16
2024-03-03T08:53:14.691Z,100355.06
2024-03-03T08:54:16.257Z,100350.69
2024-03-03T08:55:18.158Z,100355.00
2024-03-03T08:56:19.811Z,100355.84
2024-03-03T08:57:23.045Z,100352.31
2024-03-03T08:58:24.741Z,100358.34
2024-03-03T08:59:26.517Z,100352.22
2024-03-03T09:00:30.257Z,100353.94
2024-03-03T09:01:32.007Z,100345.16
2024-03-03T09:02:34.038Z,100349.44
2024-03-03T09:03:36.175Z,100349.41
2024-03-03T09:04:40.846Z,100351.13
2024-03-03T09:05:42.835Z,100351.09
2024-03-03T09:06:44.842Z,100355.34
2024-03-03T09:07:46.563Z,100357.91
2024-03-03T09:08:48.994Z,100357.00
2024-03-03T09:09:51.052Z,100355.19
2024-03-03T09:10:57.873Z,100358.63
2024-03-03T09:12:00.612Z,100362.94
2024-03-03T09:13:02.307Z,100362.88
2024-03-03T09:14:04.564Z,100354.13
2024-03-03T09:15:07.536Z,100350.56
2024-03-03T09:16:10.416Z,100360.91
2024-03-03T09:17:12.090Z,100350.41
2024-03-03T09:18:13.896Z,100347.75
2024-03-03T09:19:17.155Z,100347.66
2024-03-03T09:20:19.289Z,100346.75
2024-03-03T09:21:23.867Z,100345.81
2024-03-03T09:22:25.690Z,100343.09
2024-03-03T09:23:27.570Z,100346.53
2024-03-03T09:24:29.210Z,100349.94
2024-03-03T09:25:31.125Z,100347.34
2024-03-03T09:26:32.812Z,100336.81
2024-03-03T09:27:34.496Z,100342.00
2024-03-03T09:28:36.353Z,100344.56
2024-03-03T09:29:38.037Z,100337.47
2024-03-03T09:30:39.734Z,100339.19
2024-03-03T09:31:41.339Z,100332.19
2024-03-03T09:32:43.095Z,100335.59
2024-03-03T09:33:48.009Z,100335.53
2024-03-03T09:34:51.189Z,100337.22
2024-03-03T09:35:53.793Z,100336.38
2024-03-03T09:36:55.512Z,100329.31
2024-03-03T09:37:57.237Z,100327.50
2024-03-03T09:38:59.048Z,100334.41
2024-03-03T09:40:01.536Z,100339.56
2024-03-03T09:41:06.595Z,100331.63
2024-03-03T09:42:08.954Z,100341.16
2024-03-03T09:43:20.604Z,100339.34
2024-03-03T09:44:24.659Z,100339.22
2024-03-03T09:45:28.976Z,100340.03
2024-03-03T09:46:31.902Z,100341.69
2024-03-03T09:47:35.517Z,100339.06
2024-03-03T09:48:40.404Z,100337.19
2024-03-03T09:49:46.327Z,100345.81
2024-03-03T09:50:51.558Z,100337.09
2024-03-03T09:51:54.450Z,100343.09
2024-03-03T09:52:59.204Z,100337.78
2024-03-03T09:54:02.870Z,100343.88
2024-03-03T09:55:06.280Z,100335.06
2024-03-03T09:56:11.770Z,100337.69
2024-03-03T09:57:15.149Z,100337.63
2024-03-03T09:58:16.967Z,100337.53
2024-03-03T09:59:19.228Z,100337.44
2024-03-03T10:00:23.736Z,100347.91
2024-03-03T10:01:26.997Z,100335.63
2024-03-03T10:02:31.531Z,100338.16
2024-03-03T10:03:34.424Z,100339.88
2024-03-03T10:04:38.824Z,100337.19
2024-03-03T10:05:41.856Z,100342.28
2024-03-03T10:06:45.547Z,100333.53
2024-03-03T10:07:52.057Z,100333.50
2024-03-03T10:09:00.638Z,100337.81
2024-03-03T10:10:07.051Z,100337.00
2024-03-03T10:11:16.042Z,100333.47
2024-03-03T10:12:19.366Z,100337.81
2024-03-03T10:13:22.286Z,100338.69
2024-03-03T10:14:27.367Z,100339.41
2024-03-03T10:15:31.061Z,100339.38
2024-03-03T10:16:36.781Z,100331.50
2024-03-03T10:17:38.805Z,100326.22
2024-03-03T10:18:40.635Z,100329.59
2024-03-03T10:19:42.830Z,100337.38
2024-03-03T10:20:44.478Z,100339.88
2024-03-03T10:21:48.997Z,100335.38
2024-03-03T10:22:50.881Z,100327.41
2024-03-03T10:23:52.685Z,100331.66
2024-03-03T10:25:14.183Z,100328.97
2024-03-03T10:26:17.271Z,100328.03
2024-03-03T10:27:22.754Z,100329.66
2024-03-03T10:28:25.088Z,100336.47
2024-03-03T10:29:28.470Z,100336.44
2024-03-03T10:30:30.769Z,100327.69
2024-03-03T10:31:32.544Z,100333.69
2024-03-03T10:32:35.602Z,100327.44
2024-03-03T10:33:37.400Z,100330.06
2024-03-03T10:34:40.237Z,100331.72
2024-03-03T10:35:42.508Z,100329.00
2024-03-03T10:36:44.386Z,100324.59
2024-03-03T10:38:05.323Z,100330.56
2024-03-03T10:39:09.540Z,100329.63
2024-03-03T10:40:12.392Z,100336.56
2024-03-03T10:41:14.367Z,100328.66
2024-03-03T10:42:16.177Z,100333.94
2024-03-03T10:43:21.430Z,100329.59
2024-03-03T10:44:24.861Z,100325.09
2024-03-03T10:45:26.485Z,100323.19
2024-03-03T10:46:29.018Z,100326.47
2024-03-03T10:47:30.848Z,100323.00
2024-03-03T10:48:32.872Z,100336.88
2024-03-03T10:49:36.916Z,100326.31
2024-03-03T10:50:39.360Z,100329.66
2024-03-03T10:51:41.172Z,100339.16
2024-03-03T10:52:44.300Z,100336.47
2024-03-03T10:53:52.806Z,100336.28
2024-03-03T10:54:54.982Z,100333.59
2024-03-03T10:55:57.049Z,100332.66
2024-03-03T10:57:00.500Z,100330.75
2024-03-03T10:58:04.029Z,100337.59
2024-03-03T10:59:06.110Z,100335.69
2024-03-03T11:00:15.544Z,100336.53
2024-03-03T11:01:18.225Z,100326.94
2024-03-03T11:02:21.628Z,100340.00
2024-03-03T11:03:25.364Z,100333.81
2024-03-03T11:04:31.797Z,100331.19
2024-03-03T11:05:33.887Z,100330.19
2024-03-03T11:06:38.404Z,100336.22
2024-03-03T11:07:40.538Z,100332.72
2024-03-03T11:08:51.062Z,100330.00
2024-03-03T11:09:54.327Z,100329.00
2024-03-03T11:11:03.934Z,100324.53
2024-03-03T11:12:07.809Z,100332.25
2024-03-03T11:13:11.715Z,100336.63
2024-03-03T11:14:14.216Z,100334.81
2024-03-03T11:15:21.593Z,100336.53
2024-03-03T11:16:29.526Z,100321.66
2024-03-03T11:17:33.899Z,100319.13
2024-03-03T11:18:39.516Z,100332.25
2024-03-03T11:19:45.906Z,100328.66
2024-03-03T11:20:53.733Z,100329.53
2024-03-03T11:22:04.601Z,100321.56
2024-03-03T11:23:15.028Z,100324.88
2024-03-03T11:24:32.897Z,100333.56
2024-03-03T11:25:43.818Z,100328.22
2024-03-03T11:26:48.145Z,100323.78
2024-03-03T11:27:56.712Z,100323.78
2024-03-03T11:29:00.599Z,100325.53
2024-03-03T11:30:02.751Z,100319.50
2024-03-03T11:31:04.947Z,100326.34
2024-03-03T11:32:09.699Z,100324.53
2024-03-03T11:33:12.661Z,100320.09
2024-03-03T11:34:16.411Z,100327.88
2024-03-03T11:35:19.361Z,100326.84
2024-03-03T11:36:22.758Z,100323.16
2024-03-03T11:37:25.846Z,100323.00
2024-03-03T11:38:57.889Z,100320.22
2024-03-03T11:40:04.758Z,100321.81
2024-03-03T11:41:12.016Z,100313.84
2024-03-03T11:42:38.705Z,100315.53
2024-03-03T11:43:41.947Z,100318.16
2024-03-03T11:44:51.882Z,100305.81
2024-03-03T11:46:59.499Z,100309.22
2024-03-03T11:48:03.832Z,100307.22
2024-03-03T11:49:07.285Z,100305.38
2024-03-03T11:50:25.612Z,100299.03
2024-03-03T11:51:30.847Z,100299.09
2024-03-03T11:52:43.819Z,100299.16
2024-03-03T11:54:01.675Z,100292.13
2024-03-03T11:55:05.118Z,100297.25
2024-03-03T11:56:21.378Z,100295.44
2024-03-03T11:57:23.937Z,100297.06
2024-03-03T11:58:25.775Z,100304.88
2024-03-03T11:59:38.700Z,100289.81